Time;durP1;ratioP1;P1;durP2;ratioP2;P2;SDS_P1;SDS_P2;PMS_P1;PMS_P2;Temp;Humidity;BMP_temperature;BMP_pressure;BME280_temperature;BME280_humidity;BME280_pressure;Samples;Min_cycle;Max_cycle;Signal;HPM_P1;HPM_P2
2022/12/21 00:01:26;;;;;;;15.10;6.65;;;;;;;10.99;100.00;100724.09;5028126;28;20824;-72
2022/12/21 00:04:03;;;;;;;34.38;16.48;;;;;;;11.02;100.00;100726.09;5025982;28;20227;-72
2022/12/21 00:06:32;;;;;;;33.00;17.38;;;;;;;11.00;100.00;100727.69;5025388;28;20497;-72
2022/12/21 00:09:00;;;;;;;26.35;9.10;;;;;;;10.99;100.00;100729.66;5029330;28;20056;-73
2022/12/21 00:11:29;;;;;;;55.55;25.60;;;;;;;11.04;100.00;100729.25;5026381;28;20048;-73
2022/12/21 00:13:57;;;;;;;25.58;11.23;;;;;;;10.97;100.00;100720.16;5023449;28;20810;-72
2022/12/21 00:16:27;;;;;;;41.97;20.80;;;;;;;11.03;100.00;100713.81;5029880;28;20044;-72
2022/12/21 00:18:55;;;;;;;41.97;20.20;;;;;;;11.00;100.00;100706.31;5024254;28;20041;-74
2022/12/21 00:21:25;;;;;;;50.92;24.65;;;;;;;10.98;100.00;100716.19;5027869;28;20079;-74
2022/12/21 00:23:53;;;;;;;46.83;22.98;;;;;;;11.00;100.00;100720.13;5026951;28;20515;-73
2022/12/21 00:26:22;;;;;;;16.65;6.35;;;;;;;10.94;100.00;100715.44;5026269;28;20124;-73
2022/12/21 00:28:52;;;;;;;37.00;17.58;;;;;;;10.95;100.00;100723.34;5023019;28;20049;-72
2022/12/21 00:31:27;;;;;;;15.45;6.03;;;;;;;10.94;100.00;100723.72;5026630;28;20126;-72
2022/12/21 00:33:55;;;;;;;45.58;23.25;;;;;;;10.94;100.00;100727.31;5022290;28;20126;-73
2022/12/21 00:36:23;;;;;;;49.78;25.27;;;;;;;10.96;100.00;100729.63;5025198;28;20053;-73
2022/12/21 00:38:50;;;;;;;29.77;13.02;;;;;;;10.94;100.00;100732.03;5026646;28;20159;-73
2022/12/21 00:41:19;;;;;;;43.15;21.60;;;;;;;10.94;100.00;100730.06;5028439;28;20052;-74
2022/12/21 00:43:47;;;;;;;39.78;20.58;;;;;;;10.96;100.00;100735.19;5022735;28;20055;-75
2022/12/21 00:46:33;;;;;;;42.58;21.10;;;;;;;10.95;100.00;100731.63;5027835;28;20049;-73
2022/12/21 00:49:02;;;;;;;39.78;20.20;;;;;;;10.96;100.00;100726.88;5026003;28;20053;-74
2022/12/21 00:51:31;;;;;;;45.90;22.13;;;;;;;10.97;100.00;100718.16;5025103;28;20481;-72
2022/12/21 00:53:58;;;;;;;37.75;20.83;;;;;;;10.93;100.00;100719.41;5026489;28;20041;-74
2022/12/21 00:56:25;;;;;;;45.55;21.90;;;;;;;10.95;100.00;100719.75;5024592;28;20041;-72
2022/12/21 00:58:53;;;;;;;40.53;20.10;;;;;;;10.89;100.00;100718.59;5027018;28;20053;-74
2022/12/21 01:01:20;;;;;;;42.25;20.30;;;;;;;10.91;100.00;100724.53;5024864;28;20103;-72
2022/12/21 01:03:47;;;;;;;43.13;22.67;;;;;;;10.88;100.00;100723.34;5026111;28;20052;-73
2022/12/21 01:06:20;;;;;;;11.15;5.13;;;;;;;10.88;100.00;100730.84;5025196;28;20095;-74
2022/12/21 01:08:47;;;;;;;39.10;19.60;;;;;;;10.90;100.00;100736.81;5025276;28;20059;-73
2022/12/21 01:11:16;;;;;;;45.60;23.15;;;;;;;10.92;100.00;100735.19;5024337;28;20045;-73
2022/12/21 01:13:43;;;;;;;42.33;21.10;;;;;;;10.89;100.00;100735.19;5025299;28;20057;-72
2022/12/21 01:16:12;;;;;;;42.80;19.98;;;;;;;10.89;100.00;100743.50;5023902;28;20235;-73
2022/12/21 01:18:39;;;;;;;35.67;16.92;;;;;;;10.88;100.00;100744.69;5025325;28;20048;-73
2022/12/21 01:21:06;;;;;;;42.35;20.25;;;;;;;10.89;100.00;100735.19;5024452;28;20049;-73
2022/12/21 01:23:32;;;;;;;41.78;23.48;;;;;;;10.89;100.00;100735.19;5025750;28;20049;-72
2022/12/21 01:25:59;;;;;;;47.22;22.88;;;;;;;10.89;100.00;100729.66;5039409;28;20916;-71
2022/12/21 01:28:25;;;;;;;39.03;19.00;;;;;;;10.87;100.00;100730.06;5048154;28;20048;-71
2022/12/21 01:30:52;;;;;;;43.60;20.25;;;;;;;10.88;100.00;100742.72;5047238;28;20081;-71
2022/12/21 01:33:19;;;;;;;41.72;20.70;;;;;;;10.86;100.00;100736.78;5041394;28;20672;-72
2022/12/21 01:35:46;;;;;;;37.13;18.77;;;;;;;10.85;100.00;100742.72;5048750;28;20048;-71
2022/12/21 01:38:13;;;;;;;38.67;19.38;;;;;;;10.84;100.00;100750.25;5060516;28;20049;-70
2022/12/21 01:40:39;;;;;;;43.20;20.52;;;;;;;10.80;100.00;100745.91;5047738;28;20147;-71
2022/12/21 01:43:36;;;;;;;33.20;15.55;;;;;;;10.80;100.00;100751.44;5046970;28;20056;-71
2022/12/21 01:46:06;;;;;;;42.85;21.33;;;;;;;10.85;100.00;100742.72;5047270;28;20044;-71
2022/12/21 01:48:39;;;;;;;37.47;17.48;;;;;;;10.79;100.00;100749.84;5045033;28;20056;-72
2022/12/21 01:51:06;;;;;;;42.55;20.75;;;;;;;10.79;100.00;100756.19;5041772;28;20064;-72
2022/12/21 01:53:40;;;;;;;34.83;16.27;;;;;;;10.76;100.00;100759.75;5045296;28;20065;-72
2022/12/21 01:56:10;;;;;;;42.35;21.25;;;;;;;10.79;100.00;100760.91;5050224;28;20048;-71
2022/12/21 01:58:40;;;;;;;42.25;18.83;;;;;;;10.75;100.00;100757.38;5051425;28;20080;-71
2022/12/21 02:01:07;;;;;;;41.88;19.27;;;;;;;10.75;100.00;100766.47;5049908;28;20052;-70
2022/12/21 02:03:39;;;;;;;34.13;15.90;;;;;;;10.72;100.00;100755.38;5051145;28;20045;-70
2022/12/21 02:06:32;;;;;;;51.15;22.02;;;;;;;10.76;100.00;100751.44;5050126;28;20127;-72
2022/12/21 02:09:01;;;;;;;46.50;23.33;;;;;;;10.78;100.00;100749.06;5045568;28;20045;-71
2022/12/21 02:11:28;;;;;;;42.97;20.00;;;;;;;10.75;100.00;100757.38;5050801;28;20073;-72
2022/12/21 02:13:54;;;;;;;48.70;19.55;;;;;;;10.72;100.00;100750.66;5051008;28;20477;-70
2022/12/21 02:16:44;;;;;;;48.28;23.63;;;;;;;10.74;100.00;100742.75;5048550;28;20052;-72
2022/12/21 02:19:55;;;;;;;50.08;22.20;;;;;;;10.73;100.00;100749.47;5045610;28;20045;-72
2022/12/21 02:22:55;;;;;;;41.47;18.90;;;;;;;10.73;100.00;100751.47;5038096;28;20434;-72
2022/12/21 02:25:39;;;;;;;46.97;20.13;;;;;;;10.71;100.00;100753.81;5056676;28;20037;-72
2022/12/21 02:28:28;;;;;;;41.40;16.00;;;;;;;10.68;100.00;100755.41;5051308;28;20080;-70
2022/12/21 02:31:17;;;;;;;49.25;23.95;;;;;;;10.72;100.00;100749.84;5049576;28;20055;-71
2022/12/21 02:34:02;;;;;;;48.40;22.20;;;;;;;10.69;100.00;100753.44;5049972;28;20059;-71
2022/12/21 02:36:42;;;;;;;52.85;23.92;;;;;;;10.70;100.00;100755.00;5050712;28;20049;-73
2022/12/21 02:39:35;;;;;;;51.65;24.13;;;;;;;10.70;100.00;100749.47;5046437;28;20052;-69
2022/12/21 02:44:12;;;;;;;53.22;25.00;;;;;;;10.70;100.00;100741.94;5042081;28;20049;-72
2022/12/21 02:45:06;;;;;;;58.08;24.65;;;;;;;10.69;100.00;100740.38;5049342;28;20045;-72
2022/12/21 02:47:40;;;;;;;54.10;24.50;;;;;;;10.70;100.00;100743.94;5050178;28;20569;-72
2022/12/21 02:50:13;;;;;;;51.83;22.53;;;;;;;10.67;100.00;100742.78;5050556;28;20045;-72
2022/12/21 02:52:53;;;;;;;57.25;24.02;;;;;;;10.68;100.00;100743.53;5048781;28;20083;-72
2022/12/21 02:55:19;;;;;;;51.00;21.00;;;;;;;10.62;100.00;100748.69;5050195;28;20409;-71
2022/12/21 02:57:46;;;;;;;50.50;21.70;;;;;;;10.63;100.00;100750.25;5048373;28;20537;-71
2022/12/21 03:00:16;;;;;;;57.05;23.10;;;;;;;10.61;100.00;100738.81;5048135;28;20059;-72
2022/12/21 03:06:02;;;;;;;42.17;18.83;;;;;;;10.59;100.00;100752.25;5049295;28;20037;-72
2022/12/21 03:08:40;;;;;;;55.72;21.98;;;;;;;10.60;100.00;100753.84;5050318;28;20049;-73
2022/12/21 03:11:08;;;;;;;48.25;21.40;;;;;;;10.59;100.00;100765.31;5049674;28;20057;-74
2022/12/21 03:13:50;;;;;;;49.45;20.90;;;;;;;10.57;100.00;100758.16;5044378;28;20087;-72
2022/12/21 03:16:32;;;;;;;51.80;22.33;;;;;;;10.59;100.00;100762.53;5045974;28;20477;-74
2022/12/21 03:19:02;;;;;;;47.40;20.67;;;;;;;10.57;100.00;100760.16;5050210;28;20126;-72
2022/12/21 03:21:34;;;;;;;51.85;20.38;;;;;;;10.56;100.00;100758.56;5049762;28;20059;-73
2022/12/21 03:24:09;;;;;;;51.83;20.63;;;;;;;10.57;100.00;100756.59;5049730;28;20049;-72
2022/12/21 03:26:50;;;;;;;48.88;19.52;;;;;;;10.54;100.00;100755.44;5048904;28;20053;-72
2022/12/21 03:29:22;;;;;;;54.78;23.08;;;;;;;10.57;100.00;100751.06;5048646;28;20049;-73
2022/12/21 03:31:57;;;;;;;57.40;22.95;;;;;;;10.59;100.00;100751.47;5046309;28;20068;-72
2022/12/21 03:34:27;;;;;;;58.00;24.40;;;;;;;10.56;100.00;100739.19;5049736;28;20674;-72
2022/12/21 03:37:02;;;;;;;56.97;23.58;;;;;;;10.59;100.00;100740.41;5049345;28;20075;-72
2022/12/21 03:39:31;;;;;;;55.45;23.65;;;;;;;10.55;100.00;100745.94;5049384;28;20753;-72
2022/12/21 03:42:05;;;;;;;58.95;23.20;;;;;;;10.53;100.00;100732.50;5048412;28;20060;-72
2022/12/21 03:44:47;;;;;;;59.65;21.92;;;;;;;10.50;100.00;100733.28;5042919;28;20049;-71
2022/12/21 03:47:21;;;;;;;55.17;21.33;;;;;;;10.52;100.00;100727.34;5045033;28;20574;-72
2022/12/21 03:49:59;;;;;;;60.90;23.27;;;;;;;10.53;100.00;100726.94;5049205;28;20053;-72
2022/12/21 03:52:44;;;;;;;57.28;22.02;;;;;;;10.53;100.00;100729.72;5045419;28;20052;-72
2022/12/21 03:55:22;;;;;;;57.17;22.88;;;;;;;10.53;100.00;100726.94;5049401;28;20044;-71
2022/12/21 03:57:50;;;;;;;56.90;22.63;;;;;;;10.54;100.00;100717.47;5048477;28;20724;-71
2022/12/21 04:00:17;;;;;;;59.63;23.50;;;;;;;10.56;100.00;100716.28;5046850;28;20395;-72
2022/12/21 04:03:07;;;;;;;57.40;22.75;;;;;;;10.53;100.00;100718.66;5047960;28;20832;-72
2022/12/21 04:05:44;;;;;;;58.08;21.60;;;;;;;10.52;100.00;100716.28;5047711;28;20746;-72
2022/12/21 04:08:10;;;;;;;61.47;24.35;;;;;;;10.49;100.00;100709.56;5047594;28;20136;-72
2022/12/21 04:10:37;;;;;;;70.63;23.92;;;;;;;10.51;100.00;100711.94;5049124;28;20049;-72
2022/12/21 04:13:03;;;;;;;65.40;24.25;;;;;;;10.51;100.00;100709.19;5048235;28;20056;-71
2022/12/21 04:19:57;;;;;;;66.07;25.88;;;;;;;10.48;100.00;100705.25;5046835;28;20594;-71
2022/12/21 04:21:02;;;;;;;63.65;23.17;;;;;;;10.48;100.00;100696.13;5048128;28;20132;-72
2022/12/21 04:28:59;;;;;;;65.65;24.77;;;;;;;10.45;100.00;100694.97;5048102;28;20092;-74
2022/12/21 04:31:25;;;;;;;66.28;24.33;;;;;;;10.44;100.00;100689.81;5048671;28;20053;-73
2022/12/21 04:33:52;;;;;;;75.95;25.80;;;;;;;10.48;100.00;100694.19;5046602;28;20099;-72
2022/12/21 04:39:03;;;;;;;69.75;25.50;;;;;;;10.49;100.00;100697.72;5048117;28;20427;-73
2022/12/21 04:41:30;;;;;;;73.10;24.08;;;;;;;10.48;100.00;100690.59;5048149;28;20503;-73
2022/12/21 04:43:56;;;;;;;64.28;23.85;;;;;;;10.48;100.00;100696.13;5045608;28;20052;-73
2022/12/21 04:46:23;;;;;;;70.97;25.30;;;;;;;10.48;100.00;100688.63;5047952;28;20049;-71
2022/12/21 04:48:49;;;;;;;75.60;24.45;;;;;;;10.48;100.00;100677.56;5046451;28;20673;-73
2022/12/21 04:51:16;;;;;;;74.18;27.08;;;;;;;10.50;100.00;100688.25;5047375;28;20066;-72
2022/12/21 04:53:42;;;;;;;71.75;26.00;;;;;;;10.50;100.00;100683.47;5045333;28;20053;-71
2022/12/21 04:56:09;;;;;;;82.30;24.17;;;;;;;10.49;100.00;100690.22;5048343;28;20048;-71
2022/12/21 04:58:37;;;;;;;72.35;24.65;;;;;;;10.48;100.00;100688.63;5046629;28;20127;-73
2022/12/21 05:01:22;;;;;;;74.50;26.23;;;;;;;10.45;100.00;100678.38;5048296;28;20049;-74
2022/12/21 05:03:49;;;;;;;73.32;25.98;;;;;;;10.48;100.00;100685.88;5046630;28;20594;-69
2022/12/21 05:06:18;;;;;;;71.90;26.13;;;;;;;10.47;100.00;100692.56;5047530;28;20056;-71
2022/12/21 05:08:45;;;;;;;63.58;23.10;;;;;;;10.46;100.00;100685.47;5046368;28;20067;-71
2022/12/21 05:11:15;;;;;;;66.32;25.10;;;;;;;10.46;100.00;100691.00;5047850;28;20052;-72
2022/12/21 05:13:43;;;;;;;56.75;21.83;;;;;;;10.45;100.00;100691.41;5046051;28;20053;-73
2022/12/21 05:16:14;;;;;;;68.35;23.17;;;;;;;10.44;100.00;100687.06;5047024;28;20143;-71
2022/12/21 05:18:41;;;;;;;67.03;25.00;;;;;;;10.47;100.00;100689.81;5048215;28;20123;-72
2022/12/21 05:21:07;;;;;;;65.72;23.55;;;;;;;10.44;100.00;100681.53;5047500;28;20049;-73
2022/12/21 05:23:34;;;;;;;63.95;22.27;;;;;;;10.47;100.00;100689.03;5046685;28;20600;-72
2022/12/21 05:26:02;;;;;;;63.33;23.45;;;;;;;10.45;100.00;100683.09;5047826;28;20127;-70
2022/12/21 05:28:39;;;;;;;57.70;21.65;;;;;;;10.43;100.00;100686.25;5044520;28;20053;-71
2022/12/21 05:31:07;;;;;;;66.72;21.98;;;;;;;10.43;100.00;100691.78;5047761;28;20049;-70
2022/12/21 05:33:33;;;;;;;59.25;21.67;;;;;;;10.44;100.00;100690.59;5047122;28;20044;-72
2022/12/21 05:36:05;;;;;;;56.22;20.58;;;;;;;10.45;100.00;100691.41;5047521;28;20045;-70
2022/12/21 05:38:31;;;;;;;49.03;20.67;;;;;;;10.41;100.00;100685.88;5047807;28;20609;-73
2022/12/21 05:40:58;;;;;;;44.67;18.35;;;;;;;10.40;100.00;100686.28;5043181;28;20494;-73
2022/12/21 05:43:25;;;;;;;43.20;17.70;;;;;;;10.42;100.00;100694.94;5045653;28;20049;-72
2022/12/21 05:45:52;;;;;;;47.42;19.20;;;;;;;10.41;100.00;100691.41;5047011;28;20533;-72
2022/12/21 05:48:19;;;;;;;45.05;17.30;;;;;;;10.41;100.00;100691.41;5041236;28;20053;-73
2022/12/21 05:50:46;;;;;;;33.28;12.55;;;;;;;10.40;100.00;100689.81;5054609;28;20051;-72
2022/12/21 05:53:12;;;;;;;39.00;13.45;;;;;;;10.41;100.00;100696.16;5047274;28;20049;-72
2022/12/21 05:55:43;;;;;;;37.83;14.02;;;;;;;10.40;100.00;100694.56;5047420;28;20052;-74
2022/12/21 05:58:11;;;;;;;44.63;16.15;;;;;;;10.42;100.00;100695.75;5047841;28;20128;-73
2022/12/21 06:00:38;;;;;;;41.45;15.23;;;;;;;10.39;100.00;100687.44;5048339;28;20422;-74
2022/12/21 06:03:04;;;;;;;35.65;13.85;;;;;;;10.41;100.00;100696.16;5047560;28;20751;-73
2022/12/21 06:05:34;;;;;;;35.25;12.57;;;;;;;10.39;100.00;100692.97;5044251;28;20123;-72
2022/12/21 06:08:01;;;;;;;42.70;16.80;;;;;;;10.41;100.00;100680.34;5039682;28;20076;-72
2022/12/21 06:10:27;;;;;;;38.50;13.40;;;;;;;10.41;100.00;100696.16;5047472;28;20499;-73
2022/12/21 06:12:54;;;;;;;38.53;14.93;;;;;;;10.42;100.00;100701.28;5036805;28;20048;-73
2022/12/21 06:15:20;;;;;;;37.97;16.00;;;;;;;10.44;100.00;100700.88;5042231;28;20045;-73
2022/12/21 06:17:47;;;;;;;44.58;16.73;;;;;;;10.45;100.00;100697.72;5046576;28;20063;-71
2022/12/21 06:20:15;;;;;;;45.83;17.30;;;;;;;10.45;100.00;100700.50;5046993;28;20055;-73
2022/12/21 06:22:41;;;;;;;41.50;16.55;;;;;;;10.47;100.00;100702.88;5040185;28;20079;-72
2022/12/21 06:25:08;;;;;;;37.63;13.60;;;;;;;10.45;100.00;100692.19;5044499;28;20048;-73
2022/12/21 06:27:34;;;;;;;38.13;14.43;;;;;;;10.42;100.00;100697.72;5046635;28;20040;-73
2022/12/21 06:30:01;;;;;;;43.10;16.55;;;;;;;10.43;100.00;100688.25;5045383;28;20049;-73
2022/12/21 06:32:27;;;;;;;40.97;14.95;;;;;;;10.44;100.00;100690.59;5044717;28;20053;-74
2022/12/21 06:34:54;;;;;;;44.60;17.45;;;;;;;10.39;100.00;100693.78;5046499;28;20049;-73
2022/12/21 06:37:20;;;;;;;42.03;15.20;;;;;;;10.39;100.00;100695.75;5038285;28;20053;-72
2022/12/21 06:39:46;;;;;;;43.70;17.42;;;;;;;10.39;100.00;100704.84;5043233;28;20049;-73
2022/12/21 06:42:13;;;;;;;50.00;17.90;;;;;;;10.37;100.00;100696.13;5049084;28;20376;-70
2022/12/21 06:44:39;;;;;;;48.80;17.50;;;;;;;10.38;100.00;100697.75;5050253;28;20045;-72
2022/12/21 06:47:06;;;;;;;43.25;16.60;;;;;;;10.38;100.00;100700.50;5049323;28;20049;-72
2022/12/21 06:49:32;;;;;;;48.10;17.70;;;;;;;10.37;100.00;100701.66;5050226;28;20049;-71
2022/12/21 06:51:59;;;;;;;60.33;21.15;;;;;;;10.34;100.00;100696.16;5049011;28;20059;-73
2022/12/21 06:54:25;;;;;;;51.25;18.58;;;;;;;10.27;100.00;100696.94;5049356;28;20069;-71
2022/12/21 06:56:52;;;;;;;52.67;18.40;;;;;;;10.22;100.00;100689.03;5049131;28;20521;-70
2022/12/21 06:59:18;;;;;;;45.30;16.08;;;;;;;10.15;100.00;100680.75;5050135;28;20045;-72
2022/12/21 07:01:45;;;;;;;43.63;14.60;;;;;;;10.14;100.00;100681.16;5049583;28;20075;-74
2022/12/21 07:04:11;;;;;;;46.22;16.73;;;;;;;10.11;100.00;100681.94;5046529;28;20046;-73
2022/12/21 07:06:38;;;;;;;48.80;14.75;;;;;;;10.05;100.00;100689.00;5046898;28;20041;-73
2022/12/21 07:09:04;;;;;;;54.25;15.65;;;;;;;10.00;100.00;100690.19;5048071;28;20649;-73
2022/12/21 07:11:31;;;;;;;49.30;15.95;;;;;;;9.96;100.00;100689.38;5050748;28;20072;-74
2022/12/21 07:13:57;;;;;;;44.40;15.20;;;;;;;9.93;100.00;100692.94;5048981;28;20056;-71
2022/12/21 07:16:24;;;;;;;46.75;14.13;;;;;;;9.87;100.00;100700.06;5063124;28;20055;-72
2022/12/21 07:18:51;;;;;;;42.60;14.07;;;;;;;9.82;100.00;100697.66;5048418;28;20075;-70
2022/12/21 07:21:19;;;;;;;49.83;16.10;;;;;;;9.79;100.00;100692.16;5046639;28;20049;-72
2022/12/21 07:23:47;;;;;;;51.00;16.75;;;;;;;9.78;100.00;100694.13;5048511;28;20471;-71
2022/12/21 07:26:19;;;;;;;50.75;16.70;;;;;;;9.79;100.00;100692.91;5049712;28;20079;-74
2022/12/21 07:28:47;;;;;;;54.03;17.77;;;;;;;9.83;100.00;100701.22;5048091;28;20053;-70
2022/12/21 07:31:20;;;;;;;45.83;16.83;;;;;;;9.83;100.00;100699.25;5049047;28;20049;-71
2022/12/21 07:33:46;;;;;;;55.40;17.40;;;;;;;9.84;100.00;100700.84;5046549;28;20049;-74
2022/12/21 07:36:14;;;;;;;56.63;19.00;;;;;;;9.84;100.00;100695.31;5064271;28;20056;-71
2022/12/21 07:38:41;;;;;;;53.72;19.65;;;;;;;9.87;100.00;100704.78;5049417;28;20045;-73
2022/12/21 07:41:10;;;;;;;62.83;19.13;;;;;;;9.87;100.00;100694.53;5047003;28;20049;-72
2022/12/21 07:43:37;;;;;;;55.60;19.30;;;;;;;9.87;100.00;100696.50;5046965;28;20060;-74
2022/12/21 07:46:04;;;;;;;50.72;19.15;;;;;;;9.89;100.00;100694.16;5048998;28;20061;-72
2022/12/21 07:48:31;;;;;;;52.35;19.02;;;;;;;9.90;100.00;100696.50;5048596;28;20067;-72
2022/12/21 07:50:58;;;;;;;61.25;19.35;;;;;;;9.87;100.00;100689.00;5049460;28;20067;-72
2022/12/21 07:53:24;;;;;;;51.10;18.60;;;;;;;9.84;100.00;100697.28;5048444;28;20055;-72
2022/12/21 07:55:51;;;;;;;51.20;18.70;;;;;;;9.78;100.00;100701.59;5048561;28;20056;-71
2022/12/21 07:58:18;;;;;;;62.33;18.90;;;;;;;9.76;100.00;100715.81;5039619;28;20052;-73
2022/12/21 08:00:45;;;;;;;55.80;19.60;;;;;;;9.76;100.00;100726.84;5048052;28;20048;-73
2022/12/21 08:03:12;;;;;;;55.05;17.55;;;;;;;9.74;100.00;100733.97;5043072;28;20498;-72
2022/12/21 08:05:39;;;;;;;51.20;17.98;;;;;;;9.75;100.00;100741.06;5048117;28;20060;-72
2022/12/21 08:08:05;;;;;;;63.35;18.33;;;;;;;9.68;100.00;100725.28;5048775;28;20049;-73
2022/12/21 08:10:32;;;;;;;60.00;19.58;;;;;;;9.69;100.00;100726.84;5048629;28;20127;-73
2022/12/21 08:12:59;;;;;;;64.50;21.45;;;;;;;9.71;100.00;100716.22;5045233;28;20066;-73
2022/12/21 08:15:25;;;;;;;56.30;19.77;;;;;;;9.70;100.00;100722.91;5048313;28;20051;-73
2022/12/21 08:17:53;;;;;;;59.97;19.13;;;;;;;9.68;100.00;100718.94;5047233;28;20045;-74
2022/12/21 08:20:19;;;;;;;73.97;21.42;;;;;;;9.71;100.00;100729.22;5046411;28;20064;-71
2022/12/21 08:22:46;;;;;;;51.33;17.92;;;;;;;9.70;100.00;100722.13;5054161;28;20052;-74
2022/12/21 08:25:12;;;;;;;55.90;17.45;;;;;;;9.65;100.00;100733.56;5047801;28;20056;-71
2022/12/21 08:27:39;;;;;;;55.13;18.40;;;;;;;9.62;100.00;100720.53;5047716;28;20041;-71
2022/12/21 08:30:08;;;;;;;49.60;16.58;;;;;;;9.63;100.00;100750.53;5048143;28;20127;-72
2022/12/21 08:32:35;;;;;;;56.33;18.30;;;;;;;9.64;100.00;100748.53;5045341;28;20045;-71
2022/12/21 08:35:02;;;;;;;48.33;16.65;;;;;;;9.62;100.00;100754.44;5048604;28;20049;-72
2022/12/21 08:37:28;;;;;;;49.00;19.42;;;;;;;9.63;100.00;100750.53;5048208;28;20049;-75
2022/12/21 08:39:55;;;;;;;57.60;19.48;;;;;;;9.63;100.00;100744.22;5047839;28;20049;-71
2022/12/21 08:42:21;;;;;;;47.53;17.30;;;;;;;9.59;100.00;100749.69;5047360;28;20060;-71
2022/12/21 08:44:48;;;;;;;47.35;16.65;;;;;;;9.61;100.00;100741.03;5047334;28;20057;-69
2022/12/21 08:47:14;;;;;;;50.72;16.02;;;;;;;9.62;100.00;100732.34;5040155;28;20041;-70
2022/12/21 08:49:41;;;;;;;65.85;19.65;;;;;;;9.64;100.00;100721.72;5047758;28;20071;-71
2022/12/21 08:52:07;;;;;;;58.70;18.75;;;;;;;9.71;100.00;100726.44;5047262;28;20574;-72
2022/12/21 08:54:34;;;;;;;45.83;17.00;;;;;;;9.71;100.00;100724.50;5048234;28;20136;-72
2022/12/21 08:57:01;;;;;;;48.42;17.17;;;;;;;9.71;100.00;100727.25;5047996;28;20037;-72
2022/12/21 08:59:28;;;;;;;55.20;17.48;;;;;;;9.73;100.00;100735.16;5043709;28;20144;-70
2022/12/21 09:01:54;;;;;;;49.92;15.82;;;;;;;9.67;100.00;100726.47;5046804;28;20468;-72
2022/12/21 09:04:21;;;;;;;68.78;26.48;;;;;;;9.69;100.00;100731.59;5042111;28;20098;-71
2022/12/21 09:06:48;;;;;;;51.15;19.02;;;;;;;9.67;100.00;100737.50;5044705;28;20744;-71
2022/12/21 09:09:14;;;;;;;61.50;22.98;;;;;;;9.72;100.00;100730.81;5047159;28;20136;-72
2022/12/21 09:11:41;;;;;;;47.95;17.55;;;;;;;9.67;100.00;100734.75;5040021;28;20421;-75
2022/12/21 09:14:20;;;;;;;35.90;14.05;;;;;;;9.63;100.00;100749.72;5047172;28;20101;-71
2022/12/21 09:16:47;;;;;;;46.80;15.20;;;;;;;9.68;100.00;100743.81;5045721;28;20060;-72
2022/12/21 09:19:13;;;;;;;45.70;17.55;;;;;;;9.69;100.00;100756.47;5046234;28;20048;-71
2022/12/21 09:21:40;;;;;;;52.75;17.67;;;;;;;9.71;100.00;100752.13;5048199;28;20044;-72
2022/12/21 09:24:07;;;;;;;44.03;15.88;;;;;;;9.70;100.00;100747.00;5048056;28;20048;-72
2022/12/21 09:26:34;;;;;;;42.72;13.68;;;;;;;9.71;100.00;100762.38;5045115;28;20049;-71
2022/12/21 09:29:00;;;;;;;34.25;11.43;;;;;;;9.63;100.00;100755.25;5045518;28;20079;-71
2022/12/21 09:31:27;;;;;;;39.40;12.68;;;;;;;9.64;100.00;100757.63;5045143;28;20048;-71
2022/12/21 09:33:55;;;;;;;36.03;12.43;;;;;;;9.64;100.00;100751.31;5039412;28;20103;-71
2022/12/21 09:36:23;;;;;;;36.47;11.82;;;;;;;9.62;100.00;100759.22;5047364;28;20127;-74
2022/12/21 09:38:50;;;;;;;39.42;14.43;;;;;;;9.67;100.00;100761.56;5045263;28;20045;-71
2022/12/21 09:41:28;;;;;;;43.10;14.70;;;;;;;9.65;100.00;100761.97;5042558;28;20058;-70
2022/12/21 09:44:19;;;;;;;39.60;13.23;;;;;;;9.63;100.00;100764.34;5038585;28;20538;-73
2022/12/21 09:46:49;;;;;;;44.33;14.65;;;;;;;9.65;100.00;100753.69;5045428;28;20561;-72
2022/12/21 09:49:24;;;;;;;41.95;11.07;;;;;;;9.64;100.00;100757.63;5047342;28;20135;-73
2022/12/21 09:51:57;;;;;;;56.67;15.02;;;;;;;9.71;100.00;100759.59;5043718;28;20044;-71
2022/12/21 09:54:33;;;;;;;41.47;13.27;;;;;;;9.71;100.00;100760.41;5045429;28;20049;-72
2022/12/21 09:56:59;;;;;;;48.28;13.48;;;;;;;9.73;100.00;100774.63;5052727;28;20053;-73
2022/12/21 09:59:26;;;;;;;36.67;12.93;;;;;;;9.67;100.00;100773.44;5045992;28;20051;-72
2022/12/21 10:01:55;;;;;;;47.90;14.55;;;;;;;9.72;100.00;100781.31;5045984;28;20167;-72
2022/12/21 10:04:57;;;;;;;44.38;14.23;;;;;;;9.67;100.00;100773.44;5043221;28;20136;-72
2022/12/21 10:08:08;;;;;;;40.17;14.07;;;;;;;9.71;100.00;100773.44;5036655;28;20056;-72
2022/12/21 10:10:39;;;;;;;34.40;12.02;;;;;;;9.63;100.00;100780.91;5038508;28;20063;-72
2022/12/21 10:13:11;;;;;;;18.17;6.65;;;;;;;9.58;100.00;100775.75;5041293;28;20060;-73
2022/12/21 10:16:00;;;;;;;31.55;12.05;;;;;;;9.65;100.00;100780.53;5040584;28;20053;-72
2022/12/21 10:18:40;;;;;;;53.60;18.17;;;;;;;9.68;100.00;100775.00;5040018;28;20041;-72
2022/12/21 10:21:28;;;;;;;27.50;10.55;;;;;;;9.63;100.00;100782.88;5043609;28;20632;-71
2022/12/21 10:23:57;;;;;;;53.72;20.60;;;;;;;9.68;100.00;100786.06;5038474;28;20052;-72
2022/12/21 10:26:26;;;;;;;54.15;17.23;;;;;;;9.70;100.00;100786.47;5040894;28;20085;-71
2022/12/21 10:29:16;;;;;;;43.88;18.67;;;;;;;9.73;100.00;100773.84;5050844;28;20041;-74
2022/12/21 10:31:46;;;;;;;30.60;10.38;;;;;;;9.75;100.00;100774.22;5031253;28;20056;-73
2022/12/21 10:34:24;;;;;;;52.80;20.95;;;;;;;9.90;100.00;100779.44;5046472;28;20048;-72
2022/12/21 10:36:58;;;;;;;58.88;23.17;;;;;;;10.03;100.00;100769.56;5049424;28;20045;-73
2022/12/21 10:39:25;;;;;;;47.58;17.42;;;;;;;10.08;100.00;100771.97;5046010;28;20048;-72
2022/12/21 10:42:01;;;;;;;57.97;22.27;;;;;;;10.17;100.00;100782.66;5043607;28;20053;-73
2022/12/21 10:44:27;;;;;;;55.47;21.40;;;;;;;10.23;100.00;100778.34;5042658;28;20049;-72
2022/12/21 10:46:54;;;;;;;59.70;24.15;;;;;;;10.30;100.00;100786.63;5046710;28;20105;-70
2022/12/21 10:49:28;;;;;;;55.63;20.80;;;;;;;10.31;100.00;100786.25;5049166;28;20391;-71
2022/12/21 10:51:55;;;;;;;53.37;23.63;;;;;;;10.33;100.00;100783.09;5043417;28;20053;-74
2022/12/21 10:54:28;;;;;;;35.60;15.27;;;;;;;10.21;100.00;100780.69;5035950;28;20307;-73
2022/12/21 10:56:59;;;;;;;67.38;25.05;;;;;;;10.19;100.00;100783.84;5033814;28;20055;-73
2022/12/21 10:59:38;;;;;;;62.65;26.33;;;;;;;10.16;100.00;100770.81;5033933;28;20424;-73
2022/12/21 11:02:07;;;;;;;32.05;13.82;;;;;;;10.06;100.00;100779.88;5041310;28;20088;-73
2022/12/21 11:04:33;;;;;;;25.33;9.63;;;;;;;10.02;100.00;100769.94;5042532;28;20056;-73
2022/12/21 11:07:05;;;;;;;58.40;22.75;;;;;;;9.93;100.00;100767.56;5035714;28;20049;-72
2022/12/21 11:09:56;;;;;;;46.40;19.33;;;;;;;9.87;100.00;100769.16;5040198;28;20057;-73
2022/12/21 11:12:49;;;;;;;52.25;20.35;;;;;;;9.89;100.00;100760.47;5046603;28;20099;-73
2022/12/21 11:15:20;;;;;;;48.42;19.17;;;;;;;9.92;100.00;100756.91;5032182;28;20501;-74
2022/12/21 11:18:32;;;;;;;28.42;10.20;;;;;;;9.88;100.00;100754.13;5033059;28;20042;-70
2022/12/21 11:21:01;;;;;;;53.08;20.75;;;;;;;10.08;100.00;100758.16;5041474;28;20056;-72
2022/12/21 11:23:28;;;;;;;49.58;19.02;;;;;;;10.23;100.00;100758.97;5037035;28;20072;-73
2022/12/21 11:25:56;;;;;;;25.08;8.85;;;;;;;10.02;100.00;100748.63;5041299;28;20045;-70
2022/12/21 11:28:24;;;;;;;43.88;17.25;;;;;;;10.18;100.00;100748.28;5038608;28;20491;-71
2022/12/21 11:31:04;;;;;;;46.15;15.68;;;;;;;10.12;100.00;100742.38;5040568;28;20068;-74
2022/12/21 11:33:31;;;;;;;31.92;11.93;;;;;;;10.07;100.00;100742.75;5042448;28;20049;-72
2022/12/21 11:36:18;;;;;;;32.60;12.85;;;;;;;10.02;100.00;100742.31;5056039;28;20403;-71